Time;durP1;ratioP1;P1;durP2;ratioP2;P2;SDS_P1;SDS_P2;PMS_P1;PMS_P2;Temp;Humidity;BMP_temperature;BMP_pressure;BME280_temperature;BME280_humidity;BME280_pressure;Samples;Min_cycle;Max_cycle;Signal;HPM_P1;HPM_P2
2021/06/06 00:03:01;;;;;;;14.55;12.85;;;23.80;56.40;;;;;;4796891;54;21119;-35
2021/06/06 00:08:02;;;;;;;14.95;13.55;;;23.80;55.80;;;;;;4795577;58;21059;-32
2021/06/06 00:13:03;;;;;;;14.30;12.80;;;23.80;55.80;;;;;;4837624;54;21089;-34
2021/06/06 00:18:04;;;;;;;14.63;13.13;;;23.80;55.80;;;;;;4812138;54;21063;-35
2021/06/06 00:23:06;;;;;;;14.32;12.93;;;23.80;56.50;;;;;;4802017;54;21067;-34
2021/06/06 00:28:08;;;;;;;14.77;13.35;;;23.80;55.80;;;;;;4824345;54;20993;-35
2021/06/06 00:33:09;;;;;;;14.07;12.68;;;23.80;55.90;;;;;;4807820;54;21071;-36
2021/06/06 00:38:10;;;;;;;13.98;12.57;;;23.80;56.00;;;;;;4807694;54;21038;-32
2021/06/06 00:43:11;;;;;;;13.90;12.50;;;23.80;55.80;;;;;;4807810;54;20983;-34
2021/06/06 00:48:13;;;;;;;13.38;12.05;;;23.80;55.90;;;;;;4808345;54;20991;-36
2021/06/06 00:53:32;;;;;;;14.00;12.60;;;23.80;55.90;;;;;;4800311;54;20995;-35
2021/06/06 00:58:33;;;;;;;13.45;12.15;;;23.80;55.90;;;;;;4827857;54;21034;-34
2021/06/06 01:03:37;;;;;;;13.60;12.25;;;23.80;55.90;;;;;;4824997;54;20979;-32
2021/06/06 01:08:40;;;;;;;13.52;12.23;;;23.80;55.90;;;;;;4887560;54;21004;-36
2021/06/06 01:13:49;;;;;;;12.63;11.43;;;23.80;55.90;;;;;;4827233;54;21078;-33
2021/06/06 01:18:51;;;;;;;14.20;12.77;;;23.80;55.90;;;;;;4845962;54;20979;-35
2021/06/06 01:25:31;;;;;;;13.45;12.15;;;23.80;55.90;;;;;;4833993;54;21142;-34
2021/06/06 01:30:36;;;;;;;13.62;12.32;;;23.80;56.00;;;;;;4801412;54;21055;-34
2021/06/06 01:35:44;;;;;;;13.73;12.32;;;23.80;55.90;;;;;;4819187;54;21106;-35
2021/06/06 01:40:47;;;;;;;13.05;11.75;;;23.80;55.90;;;;;;4814398;54;20995;-35
2021/06/06 01:45:56;;;;;;;13.02;11.70;;;23.80;55.90;;;;;;4795676;58;21042;-34
2021/06/06 01:51:07;;;;;;;12.45;11.25;;;23.80;55.90;;;;;;4837013;54;20983;-27
2021/06/06 01:56:10;;;;;;;12.63;11.43;;;23.80;55.90;;;;;;4802246;54;20996;-28
2021/06/06 02:01:16;;;;;;;13.25;11.95;;;23.80;55.90;;;;;;4815754;54;21030;-31
2021/06/06 02:06:19;;;;;;;12.70;11.40;;;23.80;55.90;;;;;;4812726;54;21084;-27
2021/06/06 02:11:35;;;;;;;11.90;10.70;;;23.80;55.90;;;;;;4794839;58;21055;-33
2021/06/06 02:16:42;;;;;;;12.47;11.27;;;23.80;55.90;;;;;;4796867;54;21029;-33
2021/06/06 02:21:43;;;;;;;;;;;23.80;55.90;;;;;;4845366;54;21454;-32
2021/06/06 02:26:55;;;;;;;12.73;11.52;;;23.80;55.90;;;;;;4806743;54;20115;-32
2021/06/06 02:33:30;;;;;;;12.35;11.15;;;23.80;56.00;;;;;;4816174;54;20991;-35
2021/06/06 02:38:37;;;;;;;12.52;11.32;;;23.80;55.90;;;;;;4817369;54;20988;-33
2021/06/06 02:44:46;;;;;;;12.40;11.20;;;23.80;55.90;;;;;;4806669;54;21497;-31
2021/06/06 02:49:48;;;;;;;12.10;10.85;;;23.80;55.90;;;;;;4859320;54;20983;-35
2021/06/06 02:54:58;;;;;;;12.98;11.73;;;23.80;56.00;;;;;;4796472;54;21083;-31
2021/06/06 03:00:08;;;;;;;12.98;11.68;;;23.80;56.00;;;;;;4811673;54;20975;-35
2021/06/06 03:05:13;;;;;;;12.52;11.32;;;23.80;56.00;;;;;;4864226;54;21007;-31
2021/06/06 03:10:17;;;;;;;12.93;11.63;;;23.80;56.00;;;;;;4814469;54;21067;-28
2021/06/06 03:15:19;;;;;;;11.77;10.68;;;23.80;56.00;;;;;;4839787;54;21074;-35
2021/06/06 03:20:26;;;;;;;12.23;11.07;;;23.80;56.00;;;;;;4833621;54;21058;-35
2021/06/06 03:27:19;;;;;;;;;;;23.80;55.90;;;;;;4801136;54;21039;-35
2021/06/06 03:32:25;;;;;;;11.80;10.70;;;23.80;55.90;;;;;;4857550;54;20067;-34
2021/06/06 03:37:26;;;;;;;12.35;11.18;;;23.80;56.00;;;;;;4817244;54;20972;-34
2021/06/06 03:42:28;;;;;;;12.18;10.98;;;23.80;56.00;;;;;;4803110;54;20991;-32
2021/06/06 03:47:28;;;;;;;12.32;11.18;;;23.80;55.90;;;;;;4816345;54;20999;-34
2021/06/06 03:52:33;;;;;;;11.60;10.38;;;23.80;56.00;;;;;;4795067;58;21019;-28
2021/06/06 03:57:34;;;;;;;12.52;11.25;;;23.80;55.90;;;;;;4809141;54;21482;-34
2021/06/06 04:02:35;;;;;;;11.27;10.18;;;23.80;56.00;;;;;;4826545;54;21063;-35
2021/06/06 04:07:36;;;;;;;11.82;10.73;;;23.80;55.90;;;;;;4911657;54;21042;-31
2021/06/06 04:12:37;;;;;;;11.68;10.57;;;23.80;56.10;;;;;;4836552;54;21055;-24
2021/06/06 04:17:38;;;;;;;11.98;10.85;;;23.80;55.90;;;;;;4852924;54;21035;-35
2021/06/06 04:22:39;;;;;;;11.75;10.55;;;23.80;56.00;;;;;;4810223;54;21059;-27
2021/06/06 04:27:40;;;;;;;10.85;9.85;;;23.80;56.00;;;;;;4795685;54;21509;-34
2021/06/06 04:32:41;;;;;;;11.35;10.25;;;23.80;55.90;;;;;;4880507;54;21076;-34
2021/06/06 04:37:42;;;;;;;11.40;10.30;;;23.80;56.00;;;;;;4810429;54;20991;-26
2021/06/06 04:42:44;;;;;;;10.95;9.95;;;23.80;56.00;;;;;;4795612;58;21482;-35
2021/06/06 04:47:44;;;;;;;11.10;10.02;;;23.80;56.00;;;;;;4836757;54;21091;-35
2021/06/06 04:52:45;;;;;;;11.43;10.32;;;23.80;56.00;;;;;;4810208;54;21023;-29
2021/06/06 04:57:47;;;;;;;10.73;9.73;;;23.80;56.00;;;;;;4811452;54;20995;-31
2021/06/06 05:02:48;;;;;;;10.90;9.88;;;23.80;56.10;;;;;;4808835;54;21056;-30
2021/06/06 05:07:55;;;;;;;11.15;10.15;;;23.70;56.00;;;;;;4794917;58;21008;-27
2021/06/06 05:12:56;;;;;;;11.63;10.50;;;23.80;56.10;;;;;;4826735;54;21182;-30
2021/06/06 05:17:57;;;;;;;11.10;10.00;;;23.80;56.10;;;;;;4826421;54;21067;-32
2021/06/06 05:22:59;;;;;;;11.70;10.60;;;23.80;56.10;;;;;;4800507;54;21007;-36
2021/06/06 05:28:00;;;;;;;10.68;9.68;;;23.80;56.10;;;;;;4806351;54;21055;-32
2021/06/06 05:33:01;;;;;;;10.93;9.93;;;23.80;56.10;;;;;;4794836;58;21003;-32
2021/06/06 05:38:04;;;;;;;11.52;10.32;;;23.80;56.10;;;;;;4839375;54;21541;-30
2021/06/06 05:43:06;;;;;;;10.82;9.73;;;23.80;56.10;;;;;;4801914;54;21062;-35
2021/06/06 05:48:08;;;;;;;10.02;9.13;;;23.80;56.20;;;;;;4826723;54;21501;-33
2021/06/06 05:53:09;;;;;;;11.57;10.38;;;23.80;56.20;;;;;;4808468;54;21055;-29
2021/06/06 05:58:11;;;;;;;10.40;9.40;;;23.80;56.20;;;;;;4802378;54;21051;-29
2021/06/06 06:03:13;;;;;;;10.77;9.77;;;23.80;56.20;;;;;;4811590;54;21051;-31
2021/06/06 06:08:24;;;;;;;10.63;9.63;;;23.80;56.20;;;;;;4805168;54;20991;-34
2021/06/06 06:13:27;;;;;;;10.68;9.68;;;23.80;56.20;;;;;;4818695;54;21494;-36
2021/06/06 06:18:30;;;;;;;10.90;9.90;;;23.80;56.20;;;;;;4808563;54;21047;-32
2021/06/06 06:23:31;;;;;;;10.10;9.10;;;23.80;56.20;;;;;;4846873;54;21018;-37
2021/06/06 06:28:31;;;;;;;10.73;9.68;;;23.80;56.20;;;;;;4826062;54;20991;-30
2021/06/06 06:33:33;;;;;;;11.35;10.25;;;23.70;56.30;;;;;;4868152;54;21402;-36
2021/06/06 06:38:34;;;;;;;11.00;10.00;;;23.80;56.30;;;;;;4821236;54;21047;-37
2021/06/06 06:43:35;;;;;;;10.48;9.48;;;23.80;56.30;;;;;;4845508;54;21075;-33
2021/06/06 06:48:35;;;;;;;10.57;9.57;;;23.80;56.30;;;;;;4846664;54;21047;-36
2021/06/06 06:53:36;;;;;;;10.82;9.75;;;23.80;56.30;;;;;;4821715;54;21011;-27
2021/06/06 06:58:37;;;;;;;10.48;9.48;;;23.80;56.30;;;;;;4798433;54;20996;-22
2021/06/06 07:03:38;;;;;;;10.90;9.80;;;23.70;56.30;;;;;;4795320;54;21005;-36
2021/06/06 07:08:41;;;;;;;10.27;9.27;;;23.80;56.40;;;;;;4796695;54;20992;-36
2021/06/06 07:13:42;;;;;;;10.48;9.48;;;23.80;56.40;;;;;;4801410;54;21130;-35
2021/06/06 07:18:44;;;;;;;10.05;9.07;;;23.80;56.40;;;;;;4796562;54;21011;-36
2021/06/06 07:23:47;;;;;;;10.50;9.50;;;23.80;56.40;;;;;;4794886;58;21493;-26
2021/06/06 07:28:47;;;;;;;10.13;9.23;;;23.80;56.50;;;;;;4817272;54;21115;-29
2021/06/06 07:33:48;;;;;;;10.75;9.75;;;23.80;56.50;;;;;;4807929;54;21127;-27
2021/06/06 07:38:50;;;;;;;11.12;10.13;;;23.80;56.60;;;;;;4817364;54;21039;-26
2021/06/06 07:43:51;;;;;;;10.98;9.88;;;23.80;56.50;;;;;;4836267;54;21066;-32
2021/06/06 07:48:52;;;;;;;9.77;8.88;;;23.80;56.60;;;;;;4852199;54;21007;-35
2021/06/06 07:53:54;;;;;;;9.90;9.00;;;23.80;56.60;;;;;;4837841;54;21085;-25
2021/06/06 07:58:55;;;;;;;10.60;9.63;;;23.80;56.60;;;;;;4800007;54;21011;-30
2021/06/06 08:03:56;;;;;;;11.07;9.98;;;23.80;56.60;;;;;;4809952;54;21545;-36
2021/06/06 08:08:57;;;;;;;10.60;9.65;;;23.80;56.60;;;;;;4837899;54;21470;-27
2021/06/06 08:13:58;;;;;;;10.48;9.57;;;23.80;56.70;;;;;;4818724;54;21003;-36
2021/06/06 08:18:58;;;;;;;10.43;9.32;;;23.80;56.60;;;;;;4810105;54;20983;-36
2021/06/06 08:23:59;;;;;;;10.63;9.63;;;23.80;56.60;;;;;;4820451;54;21518;-34
2021/06/06 08:29:00;;;;;;;10.73;9.65;;;23.80;56.60;;;;;;4846645;54;21070;-34
2021/06/06 08:34:01;;;;;;;11.23;10.13;;;23.80;56.60;;;;;;4794533;58;21639;-29
2021/06/06 08:39:08;;;;;;;10.25;9.35;;;23.80;56.70;;;;;;4794854;58;20994;-30
2021/06/06 08:44:24;;;;;;;10.02;9.13;;;23.80;56.60;;;;;;4811227;54;20986;-36
2021/06/06 08:49:29;;;;;;;10.77;9.77;;;23.80;56.60;;;;;;4795863;58;21034;-38
2021/06/06 08:55:23;;;;;;;10.43;9.43;;;23.80;56.60;;;;;;4823314;54;21002;-35
2021/06/06 09:00:37;;;;;;;10.75;9.75;;;23.80;56.60;;;;;;4803565;54;21027;-28
2021/06/06 09:05:41;;;;;;;10.35;9.45;;;23.80;56.60;;;;;;4797773;54;20975;-35
2021/06/06 09:10:45;;;;;;;10.70;9.70;;;23.80;56.60;;;;;;4931921;54;21039;-23
2021/06/06 09:15:46;;;;;;;10.50;9.60;;;23.80;57.30;;;;;;4794424;58;21080;-34
2021/06/06 09:20:48;;;;;;;10.23;9.23;;;23.80;56.60;;;;;;4795243;58;21019;-36
2021/06/06 09:26:25;;;;;;;9.63;8.73;;;23.80;56.60;;;;;;4834853;54;21094;-36
2021/06/06 09:31:26;;;;;;;9.75;8.85;;;23.80;56.60;;;;;;4833397;54;21565;-31
2021/06/06 09:36:43;;;;;;;10.73;9.73;;;23.80;56.60;;;;;;4815772;54;21053;-24
2021/06/06 09:41:48;;;;;;;;;;;23.80;56.60;;;;;;4821479;54;21034;-37
2021/06/06 09:46:59;;;;;;;10.73;9.73;;;23.80;56.60;;;;;;4798770;54;20076;-37
2021/06/06 09:52:40;;;;;;;10.48;9.48;;;23.80;56.60;;;;;;4796196;54;20999;-37
2021/06/06 09:57:43;;;;;;;10.07;9.07;;;23.90;56.60;;;;;;4810417;54;21102;-35
2021/06/06 10:03:33;;;;;;;10.50;9.50;;;23.80;56.60;;;;;;4795085;58;21550;-30
2021/06/06 10:08:34;;;;;;;10.32;9.32;;;23.90;56.60;;;;;;4816131;54;20968;-36
2021/06/06 10:13:38;;;;;;;10.27;9.38;;;23.90;56.70;;;;;;4816531;54;21055;-34
2021/06/06 10:18:44;;;;;;;10.73;9.75;;;23.90;56.70;;;;;;4812096;54;21067;-36
2021/06/06 10:24:03;;;;;;;11.30;10.20;;;23.90;56.70;;;;;;4794284;58;21032;-36
2021/06/06 10:29:28;;;;;;;10.50;9.43;;;23.90;56.70;;;;;;4805589;54;21015;-22
2021/06/06 10:35:35;;;;;;;11.57;10.38;;;23.90;56.70;;;;;;4814096;54;21142;-32
2021/06/06 10:40:48;;;;;;;11.23;10.23;;;23.90;56.60;;;;;;4816270;54;20979;-28
2021/06/06 10:45:59;;;;;;;12.15;10.95;;;23.90;56.70;;;;;;4824026;54;21008;-38
2021/06/06 10:51:42;;;;;;;11.93;10.73;;;23.90;56.70;;;;;;4827337;54;21525;-29
2021/06/06 10:57:02;;;;;;;12.27;11.07;;;23.90;56.70;;;;;;4798643;54;21112;-34
2021/06/06 11:02:05;;;;;;;11.70;10.63;;;23.90;56.70;;;;;;4835467;54;21099;-36
2021/06/06 11:08:08;;;;;;;12.35;11.15;;;23.90;56.70;;;;;;4845759;54;21054;-35
2021/06/06 11:14:35;;;;;;;11.60;10.50;;;23.90;56.70;;;;;;4879646;54;21298;-36
2021/06/06 11:19:36;;;;;;;12.85;11.60;;;23.90;56.80;;;;;;4809133;54;21015;-26
2021/06/06 11:24:56;;;;;;;13.85;12.45;;;23.90;56.70;;;;;;4794906;58;21051;-26
2021/06/06 11:30:42;;;;;;;13.35;12.05;;;23.90;56.70;;;;;;4806360;54;21509;-36
2021/06/06 11:35:50;;;;;;;14.30;12.90;;;23.90;56.70;;;;;;4847108;54;21023;-31
2021/06/06 11:41:06;;;;;;;13.62;12.23;;;23.90;56.70;;;;;;4796290;54;21430;-29
2021/06/06 11:46:37;;;;;;;13.68;12.27;;;23.90;56.80;;;;;;4840705;54;20995;-32
2021/06/06 11:51:42;;;;;;;14.15;12.68;;;23.90;56.70;;;;;;4833811;54;21042;-22
2021/06/06 11:56:45;;;;;;;13.40;12.00;;;23.90;56.80;;;;;;4804789;54;21517;-36
2021/06/06 12:01:54;;;;;;;14.38;12.98;;;23.90;56.80;;;;;;4806540;54;21003;-35
2021/06/06 12:06:56;;;;;;;13.88;12.48;;;23.90;56.80;;;;;;4840666;54;20999;-36
2021/06/06 12:12:46;;;;;;;14.20;12.80;;;23.90;56.80;;;;;;4826688;54;21027;-27
2021/06/06 12:17:47;;;;;;;14.85;13.25;;;23.90;56.80;;;;;;4840449;54;21132;-34
2021/06/06 12:22:48;;;;;;;14.73;13.23;;;23.90;56.80;;;;;;4795027;58;21011;-36
2021/06/06 12:27:58;;;;;;;14.50;13.00;;;23.90;56.80;;;;;;4811986;54;21344;-33
2021/06/06 12:33:36;;;;;;;13.95;12.55;;;24.00;56.80;;;;;;4849038;54;21023;-27
2021/06/06 12:38:37;;;;;;;14.38;12.90;;;24.00;56.90;;;;;;4794610;58;20995;-36
2021/06/06 12:43:44;;;;;;;14.98;13.40;;;23.90;56.80;;;;;;4821328;54;21098;-36
2021/06/06 12:48:55;;;;;;;;;;;24.00;56.90;;;;;;4808266;54;21039;-37
2021/06/06 12:54:17;;;;;;;16.58;14.77;;;23.90;56.80;;;;;;4807953;54;20118;-34
2021/06/06 12:59:29;;;;;;;16.23;14.40;;;24.00;56.90;;;;;;4822648;54;21090;-36
2021/06/06 13:04:30;;;;;;;15.30;13.80;;;24.00;56.90;;;;;;4815260;54;21098;-36
2021/06/06 13:09:43;;;;;;;15.65;14.05;;;24.00;56.90;;;;;;4851587;54;21054;-36
2021/06/06 13:14:57;;;;;;;15.85;14.18;;;24.00;56.90;;;;;;4835748;54;20987;-33
2021/06/06 13:20:36;;;;;;;14.80;13.30;;;24.00;56.90;;;;;;4795075;55;21035;-36
2021/06/06 13:25:55;;;;;;;15.80;14.20;;;24.00;56.90;;;;;;4794685;58;21047;-33
2021/06/06 13:31:06;;;;;;;15.88;14.18;;;24.00;56.90;;;;;;4812971;54;21042;-36
2021/06/06 13:36:09;;;;;;;16.48;14.77;;;24.00;57.00;;;;;;4804473;54;21522;-28
2021/06/06 13:41:15;;;;;;;16.25;14.55;;;24.00;57.10;;;;;;4807835;54;21003;-20
2021/06/06 13:46:19;;;;;;;15.57;14.00;;;24.00;57.00;;;;;;4833973;54;21564;-29
2021/06/06 13:51:22;;;;;;;17.00;15.20;;;24.00;57.00;;;;;;4833150;54;21039;-34
2021/06/06 13:56:23;;;;;;;16.05;14.43;;;23.90;57.00;;;;;;4808950;54;21007;-34
2021/06/06 14:01:24;;;;;;;16.75;15.05;;;24.00;57.10;;;;;;4803639;54;21505;-28
2021/06/06 14:06:25;;;;;;;16.45;14.77;;;24.00;57.10;;;;;;4803353;54;20987;-30
2021/06/06 14:11:33;;;;;;;16.17;14.50;;;24.00;57.70;;;;;;4803759;54;21051;-36
2021/06/06 14:16:37;;;;;;;16.50;14.85;;;24.00;57.20;;;;;;4795663;54;20983;-32
2021/06/06 14:21:39;;;;;;;15.82;14.15;;;24.00;57.10;;;;;;4814102;54;21976;-35
2021/06/06 14:26:43;;;;;;;15.55;14.05;;;24.00;57.20;;;;;;4805285;54;21895;-34
2021/06/06 14:31:47;;;;;;;16.10;14.45;;;24.00;57.10;;;;;;4801290;54;21003;-37
2021/06/06 14:36:49;;;;;;;16.05;14.45;;;24.00;57.20;;;;;;4794484;58;21554;-37
2021/06/06 14:41:51;;;;;;;15.55;13.95;;;24.00;57.30;;;;;;4834764;54;21467;-36
2021/06/06 14:46:58;;;;;;;17.12;15.40;;;24.00;57.20;;;;;;4795131;58;21950;-37
2021/06/06 14:51:59;;;;;;;15.65;14.05;;;23.90;57.20;;;;;;4887987;54;20995;-29
2021/06/06 14:57:03;;;;;;;16.40;14.70;;;24.00;57.30;;;;;;4894102;54;21003;-35
2021/06/06 15:02:04;;;;;;;16.30;14.60;;;24.00;57.30;;;;;;4840852;54;21011;-36
2021/06/06 15:07:05;;;;;;;16.65;14.80;;;24.00;57.30;;;;;;4840849;54;21108;-33
2021/06/06 15:12:07;;;;;;;16.02;14.30;;;24.00;57.30;;;;;;4802510;54;21501;-35
2021/06/06 15:17:07;;;;;;;15.63;13.93;;;24.00;57.30;;;;;;4868045;54;21133;-35
2021/06/06 15:22:09;;;;;;;15.90;14.32;;;24.00;57.40;;;;;;4811843;54;21181;-35
2021/06/06 15:27:10;;;;;;;16.30;14.60;;;24.00;57.40;;;;;;4827763;54;21035;-31
2021/06/06 15:32:11;;;;;;;16.37;14.68;;;24.00;57.40;;;;;;4795614;55;21082;-30
2021/06/06 15:37:12;;;;;;;14.80;13.30;;;24.00;57.40;;;;;;4812786;54;21074;-34
2021/06/06 15:42:12;;;;;;;16.55;14.85;;;24.00;57.50;;;;;;4809907;54;21469;-35
2021/06/06 15:47:13;;;;;;;16.73;15.05;;;24.00;57.50;;;;;;4839286;54;21025;-30
2021/06/06 15:52:14;;;;;;;16.92;14.75;;;24.00;57.50;;;;;;4806283;54;21019;-36
2021/06/06 15:57:15;;;;;;;15.75;14.20;;;24.00;57.50;;;;;;4812309;54;22261;-30
2021/06/06 16:02:23;;;;;;;16.48;14.75;;;24.00;57.50;;;;;;4814843;54;21115;-36
2021/06/06 16:07:23;;;;;;;15.50;13.88;;;24.00;57.50;;;;;;4795230;58;21116;-33
2021/06/06 16:12:24;;;;;;;16.00;14.40;;;24.00;57.60;;;;;;4812955;54;21059;-34
2021/06/06 16:17:25;;;;;;;16.40;14.80;;;24.00;57.60;;;;;;4831445;54;21350;-38
2021/06/06 16:22:27;;;;;;;16.23;14.63;;;24.00;57.60;;;;;;4795124;55;21062;-35
2021/06/06 16:27:27;;;;;;;16.73;14.95;;;24.00;57.60;;;;;;4799535;54;21038;-37
2021/06/06 16:32:28;;;;;;;17.12;15.32;;;24.00;57.60;;;;;;4831831;54;21015;-37
2021/06/06 16:37:29;;;;;;;17.17;15.35;;;24.00;58.20;;;;;;4794029;58;21022;-22
2021/06/06 16:42:30;;;;;;;16.77;15.00;;;24.00;57.70;;;;;;4794929;55;21484;-35
2021/06/06 16:47:31;;;;;;;16.12;14.63;;;24.00;57.70;;;;;;4796778;58;20995;-27
2021/06/06 16:52:33;;;;;;;15.57;14.02;;;24.00;57.80;;;;;;4849751;54;21063;-36
2021/06/06 16:57:34;;;;;;;15.70;14.10;;;24.00;57.70;;;;;;4809197;54;21550;-34
2021/06/06 17:02:35;;;;;;;15.40;13.85;;;24.00;57.80;;;;;;4795070;58;21030;-33
2021/06/06 17:07:36;;;;;;;17.33;15.52;;;24.00;57.80;;;;;;4797729;54;21590;-38
2021/06/06 17:12:38;;;;;;;17.62;15.68;;;24.00;57.70;;;;;;4804813;54;21008;-35
2021/06/06 17:17:42;;;;;;;17.20;15.43;;;24.00;57.80;;;;;;4910099;54;21059;-35
2021/06/06 17:22:42;;;;;;;15.88;14.27;;;24.00;57.80;;;;;;4794560;58;21035;-33
2021/06/06 17:27:44;;;;;;;15.90;14.30;;;24.00;57.80;;;;;;4799476;54;20971;-28
2021/06/06 17:32:45;;;;;;;19.85;15.40;;;24.00;57.80;;;;;;4799846;54;20987;-36
2021/06/06 17:37:46;;;;;;;16.15;14.45;;;24.00;57.80;;;;;;4795186;55;20983;-35
2021/06/06 17:42:48;;;;;;;15.45;13.85;;;24.10;57.90;;;;;;4798012;54;20996;-36
2021/06/06 17:47:49;;;;;;;16.90;15.10;;;24.00;57.80;;;;;;4900912;54;21054;-29
2021/06/06 17:52:53;;;;;;;16.65;14.98;;;24.10;57.90;;;;;;4802709;54;21474;-33
2021/06/06 17:57:54;;;;;;;15.02;13.45;;;24.00;57.80;;;;;;4801439;54;21007;-27
2021/06/06 18:03:00;;;;;;;16.27;14.68;;;24.00;57.90;;;;;;4825417;54;20980;-23
2021/06/06 18:08:02;;;;;;;16.37;14.68;;;24.00;57.90;;;;;;4831034;54;21050;-31
2021/06/06 18:13:05;;;;;;;15.63;13.98;;;24.00;57.90;;;;;;4854632;54;20991;-36
2021/06/06 18:18:07;;;;;;;15.02;13.52;;;24.00;57.90;;;;;;4831593;54;21077;-25
2021/06/06 18:23:09;;;;;;;15.15;13.65;;;24.00;57.90;;;;;;4795568;54;21039;-35
2021/06/06 18:28:12;;;;;;;15.07;13.57;;;24.00;58.00;;;;;;4795450;58;21046;-28
2021/06/06 18:33:14;;;;;;;14.73;13.27;;;24.10;58.00;;;;;;4800631;54;21043;-35
2021/06/06 18:38:15;;;;;;;14.93;13.43;;;24.10;58.00;;;;;;4834826;54;21477;-34
2021/06/06 18:43:19;;;;;;;15.48;13.88;;;24.00;58.00;;;;;;4798649;54;21557;-36
2021/06/06 18:48:21;;;;;;;14.82;13.35;;;24.10;58.10;;;;;;4795418;54;21095;-35
2021/06/06 18:53:27;;;;;;;14.85;13.45;;;24.00;58.00;;;;;;4807494;54;21063;-25
2021/06/06 18:58:31;;;;;;;14.90;13.50;;;24.00;58.00;;;;;;4812430;54;21078;-35
2021/06/06 19:03:35;;;;;;;15.30;13.80;;;24.10;58.10;;;;;;4832470;54;21465;-34
2021/06/06 19:08:36;;;;;;;15.95;14.35;;;24.10;58.20;;;;;;4810214;54;21478;-36
2021/06/06 19:13:37;;;;;;;15.30;13.70;;;24.10;58.20;;;;;;4794960;58;20999;-35
2021/06/06 19:18:38;;;;;;;15.10;13.50;;;24.10;58.30;;;;;;4827728;54;20991;-35
2021/06/06 19:23:41;;;;;;;14.77;13.27;;;24.10;58.30;;;;;;4840887;54;21177;-33
2021/06/06 19:28:43;;;;;;;14.77;13.18;;;24.00;58.10;;;;;;4825411;54;21454;-36
2021/06/06 19:33:49;;;;;;;15.10;13.60;;;24.10;58.30;;;;;;4798059;54;21103;-36
2021/06/06 19:38:50;;;;;;;15.10;13.60;;;24.10;58.30;;;;;;4817085;54;21512;-30
2021/06/06 19:43:51;;;;;;;14.73;13.23;;;24.10;58.30;;;;;;4796061;55;21093;-34
2021/06/06 19:48:52;;;;;;;14.70;13.25;;;24.10;58.40;;;;;;4878357;54;21003;-34
2021/06/06 19:53:53;;;;;;;14.40;13.00;;;24.10;58.30;;;;;;4804001;54;21097;-28
2021/06/06 19:58:54;;;;;;;14.45;13.05;;;24.10;58.30;;;;;;4812392;54;21177;-33
2021/06/06 20:03:55;;;;;;;13.35;11.98;;;24.10;58.40;;;;;;4813372;54;20996;-27
2021/06/06 20:08:58;;;;;;;14.80;13.32;;;24.10;58.40;;;;;;4852103;54;21552;-19
2021/06/06 20:13:59;;;;;;;14.05;12.65;;;24.10;58.50;;;;;;4795196;55;21118;-29
2021/06/06 20:19:00;;;;;;;14.13;12.73;;;24.00;58.40;;;;;;4809575;54;21566;-33
2021/06/06 20:24:02;;;;;;;14.25;12.82;;;24.10;59.20;;;;;;4812655;54;21107;-32
2021/06/06 20:29:03;;;;;;;14.13;12.73;;;24.00;58.50;;;;;;4795609;54;21007;-32
2021/06/06 20:34:26;;;;;;;14.20;12.75;;;24.10;58.50;;;;;;4818280;54;21000;-35
2021/06/06 20:39:32;;;;;;;13.48;12.18;;;24.10;58.60;;;;;;4795047;58;21478;-35
2021/06/06 20:44:34;;;;;;;15.05;13.07;;;24.10;58.60;;;;;;4857420;54;21024;-29
2021/06/06 20:49:38;;;;;;;13.68;12.43;;;24.10;58.60;;;;;;4831025;54;20999;-29
2021/06/06 20:54:39;;;;;;;12.98;11.75;;;24.10;58.70;;;;;;4864773;54;21032;-34
2021/06/06 20:59:40;;;;;;;14.55;13.15;;;24.00;58.60;;;;;;4800731;54;21015;-33
2021/06/06 21:04:41;;;;;;;14.05;12.65;;;24.10;58.70;;;;;;4813409;54;21135;-33
2021/06/06 21:09:48;;;;;;;13.68;12.30;;;24.00;58.60;;;;;;4812128;54;21022;-30
2021/06/06 21:14:49;;;;;;;14.00;12.60;;;24.10;58.70;;;;;;4815874;54;21031;-34
2021/06/06 21:19:49;;;;;;;13.90;12.57;;;24.00;58.60;;;;;;4800611;54;21071;-36
2021/06/06 21:24:50;;;;;;;13.85;12.40;;;24.10;58.90;;;;;;4794812;58;21023;-33
2021/06/06 21:29:51;;;;;;;13.48;12.18;;;24.00;58.60;;;;;;4817094;54;21028;-34
2021/06/06 21:34:52;;;;;;;14.13;12.52;;;24.00;58.70;;;;;;4831942;54;21624;-36
2021/06/06 21:39:53;;;;;;;13.25;11.98;;;24.00;58.70;;;;;;4795191;54;20999;-29
2021/06/06 21:44:53;;;;;;;13.88;12.57;;;24.10;58.80;;;;;;4833174;54;21099;-36
2021/06/06 21:49:54;;;;;;;13.18;11.88;;;24.00;58.70;;;;;;4807228;54;20991;-36
2021/06/06 21:54:55;;;;;;;13.82;12.52;;;24.00;58.80;;;;;;4801995;54;21132;-34
2021/06/06 21:59:56;;;;;;;12.95;11.75;;;24.10;58.80;;;;;;4795253;58;21051;-36
2021/06/06 22:04:56;;;;;;;13.60;12.30;;;24.10;58.80;;;;;;4795107;58;21046;-35
2021/06/06 22:09:57;;;;;;;14.40;13.00;;;24.10;58.80;;;;;;4804307;54;21027;-35
2021/06/06 22:14:58;;;;;;;13.82;12.45;;;24.00;58.80;;;;;;4808127;54;21067;-37
2021/06/06 22:20:37;;;;;;;12.80;11.60;;;24.10;58.90;;;;;;4820827;54;21007;-36
2021/06/06 22:26:15;;;;;;;12.35;11.15;;;24.00;58.80;;;;;;4797427;54;21190;-34
2021/06/06 22:31:53;;;;;;;12.23;11.02;;;24.00;58.80;;;;;;4833995;54;21521;-28
2021/06/06 22:37:31;;;;;;;13.98;12.57;;;24.00;58.80;;;;;;4830949;54;21032;-33
2021/06/06 22:43:11;;;;;;;12.65;11.45;;;24.00;58.90;;;;;;4810586;54;21051;-36
2021/06/06 22:48:49;;;;;;;12.77;11.57;;;24.10;58.90;;;;;;4839948;54;21478;-33
2021/06/06 22:54:27;;;;;;;13.30;11.95;;;24.00;58.30;;;;;;4795205;58;21079;-32
2021/06/06 23:00:05;;;;;;;12.30;11.20;;;24.10;58.90;;;;;;4796912;54;21015;-34
2021/06/06 23:05:43;;;;;;;12.95;11.65;;;24.00;58.90;;;;;;4798483;54;21046;-36
2021/06/06 23:11:21;;;;;;;12.77;11.52;;;24.10;58.90;;;;;;4828824;54;21023;-33
2021/06/06 23:17:01;;;;;;;12.48;11.38;;;24.00;58.90;;;;;;4809024;54;21690;-36
2021/06/06 23:22:26;;;;;;;12.57;11.27;;;24.00;58.90;;;;;;4833399;54;21413;-33
2021/06/06 23:27:29;;;;;;;11.95;10.77;;;24.00;58.90;;;;;;4798491;54;21062;-32
2021/06/06 23:32:33;;;;;;;12.55;11.40;;;24.10;59.00;;;;;;4844612;54;21494;-36
2021/06/06 23:37:35;;;;;;;12.05;10.95;;;24.00;58.90;;;;;;4839353;54;21008;-34
2021/06/06 23:42:36;;;;;;;12.18;11.07;;;24.00;58.90;;;;;;4795153;58;20995;-34
2021/06/06 23:47:37;;;;;;;12.37;11.18;;;24.00;58.90;;;;;;4817206;54;21011;-30
2021/06/06 23:52:59;;;;;;;13.13;11.90;;;24.10;59.00;;;;;;4817242;54;21003;-34
2021/06/06 23:58:00;;;;;;;11.40;10.30;;;24.00;58.90;;;;;;4808783;54;21537;-34
